Time;durP1;ratioP1;P1;durP2;ratioP2;P2;SDS_P1;SDS_P2;PMS_P1;PMS_P2;Temp;Humidity;BMP_temperature;BMP_pressure;BME280_temperature;BME280_humidity;BME280_pressure;Samples;Min_cycle;Max_cycle;Signal;HPM_P1;HPM_P2
2023/03/14 00:01:18;;;;;;;7.10;1.50;;;11.80;99.90;;;10.48;94.38;98522.28;5006130;28;20028;-78
2023/03/14 00:03:44;;;;;;;3.58;1.60;;;11.80;99.90;;;10.43;94.58;98515.59;4978618;28;20746;-79
2023/03/14 00:06:16;;;;;;;3.83;1.77;;;11.70;99.90;;;10.38;94.12;98524.81;4993969;28;20040;-78
2023/03/14 00:08:44;;;;;;;3.30;1.58;;;11.70;99.90;;;10.34;94.51;98518.94;5027181;28;20287;-79
2023/03/14 00:11:17;;;;;;;2.80;1.58;;;11.70;99.90;;;10.31;94.81;98519.19;5011143;28;20117;-78
2023/03/14 00:13:52;;;;;;;4.60;1.48;;;11.60;99.90;;;10.27;94.80;98515.13;4980749;28;20128;-79
2023/03/14 00:16:26;;;;;;;5.50;1.90;;;11.60;99.90;;;10.22;95.49;98510.22;4965055;28;20048;-79
2023/03/14 00:18:52;;;;;;;6.82;1.92;;;11.60;99.90;;;10.20;95.42;98522.66;5030028;28;20501;-78
2023/03/14 00:21:18;;;;;;;5.10;2.00;;;11.50;99.90;;;10.12;95.95;98521.59;4985960;28;20048;-79
2023/03/14 00:23:44;;;;;;;5.53;2.20;;;11.40;99.90;;;10.03;95.86;98520.53;4994466;28;20064;-77
2023/03/14 00:26:16;;;;;;;2.53;1.60;;;11.40;99.90;;;9.98;96.37;98531.44;5005011;28;20070;-78
2023/03/14 00:28:43;;;;;;;5.53;2.00;;;11.30;99.90;;;9.91;96.98;98506.56;4981117;28;20088;-77
2023/03/14 00:31:13;;;;;;;6.22;1.83;;;11.30;99.90;;;9.88;97.46;98501.56;4977312;28;20058;-79
2023/03/14 00:33:42;;;;;;;5.80;2.13;;;11.20;99.90;;;9.82;97.33;98496.78;4980863;28;22338;-79
2023/03/14 00:36:16;;;;;;;3.97;2.17;;;11.20;99.90;;;9.81;97.85;98479.34;5001780;28;20040;-79
2023/03/14 00:38:44;;;;;;;3.50;1.80;;;11.10;99.90;;;9.77;98.05;98483.19;4964873;28;20033;-79
2023/03/14 00:41:22;;;;;;;9.23;2.00;;;11.10;99.90;;;9.69;97.92;98488.19;4961675;28;20025;-78
2023/03/14 00:43:52;;;;;;;3.78;1.65;;;11.00;99.90;;;9.61;98.55;98483.53;4969415;28;20034;-79
2023/03/14 00:46:18;;;;;;;6.10;1.67;;;11.00;99.90;;;9.56;99.04;98490.94;4972807;28;20037;-78
2023/03/14 00:48:46;;;;;;;4.05;2.03;;;10.90;99.90;;;9.52;99.55;98506.09;4977402;28;20523;-77
2023/03/14 00:51:14;;;;;;;3.55;2.10;;;10.90;99.90;;;9.49;99.64;98506.34;4979848;28;20071;-79
2023/03/14 00:53:44;;;;;;;4.03;1.73;;;10.80;99.90;;;9.47;100.00;98497.75;4963225;28;20041;-79
2023/03/14 00:56:12;;;;;;;5.22;1.90;;;10.80;99.90;;;9.45;100.00;98483.91;4962359;28;20551;-79
2023/03/14 00:58:38;;;;;;;6.90;2.13;;;10.80;99.90;;;9.44;100.00;98472.56;4993068;28;20483;-79
2023/03/14 01:01:13;;;;;;;4.43;1.70;;;10.80;99.90;;;9.45;100.00;98474.22;4993016;28;20044;-77
2023/03/14 01:03:39;;;;;;;4.38;2.00;;;10.80;99.90;;;9.45;100.00;98473.41;4969733;28;20036;-79
2023/03/14 01:06:17;;;;;;;6.20;1.98;;;10.80;99.90;;;9.44;100.00;98498.84;4963831;28;20072;-78
2023/03/14 01:08:44;;;;;;;3.22;1.98;;;10.80;99.90;;;9.45;100.00;98516.25;4978816;28;20041;-78
2023/03/14 01:11:16;;;;;;;3.28;1.85;;;10.80;99.90;;;9.40;100.00;98515.78;4965277;28;20123;-78
2023/03/14 01:13:45;;;;;;;11.55;1.90;;;10.80;99.90;;;9.43;100.00;98504.19;4981411;28;20475;-78
2023/03/14 01:16:12;;;;;;;6.28;1.95;;;10.80;99.90;;;9.46;100.00;98496.09;5011602;28;20039;-79
2023/03/14 01:18:41;;;;;;;3.17;1.80;;;10.80;99.90;;;9.43;100.00;98483.19;5002476;28;20029;-79
2023/03/14 01:21:30;;;;;;;4.28;1.88;;;10.80;99.90;;;9.39;100.00;98471.25;4990517;28;20033;-79
2023/03/14 01:23:58;;;;;;;6.75;1.95;;;10.80;99.90;;;9.40;100.00;98471.13;5010796;28;20037;-79
2023/03/14 01:26:34;;;;;;;3.22;1.70;;;10.80;99.90;;;9.37;100.00;98450.38;5013263;28;20037;-78
2023/03/14 01:29:00;;;;;;;4.23;2.20;;;10.70;99.90;;;9.39;100.00;98448.44;5003349;28;20032;-79
2023/03/14 01:31:27;;;;;;;9.38;2.22;;;10.80;99.90;;;9.38;100.00;98443.31;5031641;28;20275;-80
2023/03/14 01:34:03;;;;;;;3.95;2.08;;;10.70;99.90;;;9.37;100.00;98444.25;4991256;28;20048;-79
2023/03/14 01:36:29;;;;;;;4.93;1.83;;;10.70;99.90;;;9.38;100.00;98432.81;4998958;28;20033;-78
2023/03/14 01:38:55;;;;;;;6.05;2.20;;;10.70;99.90;;;9.40;100.00;98436.16;4967796;28;20119;-78
2023/03/14 01:41:28;;;;;;;6.40;2.10;;;10.70;99.90;;;9.37;100.00;98433.75;4986462;28;20355;-78
2023/03/14 01:43:54;;;;;;;3.95;2.22;;;10.70;99.90;;;9.36;100.00;98443.44;5013080;28;20054;-79
2023/03/14 01:46:59;;;;;;;4.13;2.08;;;10.70;99.90;;;9.37;100.00;98434.59;5010875;28;20032;-79
2023/03/14 01:49:36;;;;;;;7.20;2.30;;;10.70;99.90;;;9.35;100.00;98414.66;4945501;28;20539;-79
2023/03/14 01:52:21;;;;;;;8.15;2.47;;;10.70;99.90;;;9.34;100.00;98447.13;4946943;28;20025;-79
2023/03/14 01:54:55;;;;;;;5.68;2.30;;;10.70;99.90;;;9.31;100.00;98457.84;5007858;28;20621;-78
2023/03/14 01:57:37;;;;;;;7.32;2.50;;;10.70;99.90;;;9.31;100.00;98455.22;4986952;28;20033;-79
2023/03/14 02:00:21;;;;;;;5.85;2.35;;;10.70;99.90;;;9.33;100.00;98466.47;5009026;28;20052;-79
2023/03/14 02:03:03;;;;;;;8.43;2.38;;;10.60;99.90;;;9.33;100.00;98466.47;4991178;28;20029;-78
2023/03/14 02:05:35;;;;;;;5.53;2.28;;;10.60;99.90;;;9.31;100.00;98471.00;4985143;28;20078;-78
2023/03/14 02:08:05;;;;;;;7.80;2.38;;;10.60;99.90;;;9.29;100.00;98486.88;4953019;28;20041;-78
2023/03/14 02:10:38;;;;;;;6.80;2.38;;;10.70;99.90;;;9.33;100.00;98487.47;4999118;28;20059;-79
2023/03/14 02:13:05;;;;;;;8.60;2.30;;;10.70;99.90;;;9.43;100.00;98480.56;5017929;28;20457;-78
2023/03/14 02:15:36;;;;;;;7.50;2.10;;;10.70;99.90;;;9.48;100.00;98477.56;4962374;28;20573;-78
2023/03/14 02:18:04;;;;;;;8.82;1.92;;;10.80;99.90;;;9.55;100.00;98486.66;5001512;28;20036;-78
2023/03/14 02:20:47;;;;;;;8.18;2.45;;;10.80;99.90;;;9.61;100.00;98473.03;5039449;28;20025;-79
2023/03/14 02:23:37;;;;;;;5.72;1.95;;;10.90;99.90;;;9.63;100.00;98464.09;5045834;22;20040;-79
2023/03/14 02:26:26;;;;;;;7.75;2.20;;;10.90;99.90;;;9.67;100.00;98463.84;5047742;28;20103;-77
2023/03/14 02:28:57;;;;;;;6.40;2.33;;;11.00;99.90;;;9.70;100.00;98463.56;5027058;28;20036;-78
2023/03/14 02:31:23;;;;;;;8.98;2.40;;;11.00;99.90;;;9.71;100.00;98465.25;4978754;28;20032;-78
2023/03/14 02:33:50;;;;;;;8.93;1.83;;;11.00;99.90;;;9.72;100.00;98454.66;5021628;28;20058;-79
2023/03/14 02:36:20;;;;;;;4.78;2.30;;;11.10;99.90;;;9.76;100.00;98445.56;4977754;28;20451;-79
2023/03/14 02:39:06;;;;;;;3.22;1.80;;;11.10;99.90;;;9.77;99.83;98439.34;4965230;28;20407;-79
2023/03/14 02:41:32;;;;;;;8.32;2.40;;;11.00;99.90;;;9.78;99.66;98442.78;5038703;28;20066;-80
2023/03/14 02:43:58;;;;;;;8.75;2.10;;;11.10;99.90;;;9.77;98.88;98436.69;5035968;23;20127;-79
2023/03/14 02:46:24;;;;;;;6.55;2.38;;;11.10;99.90;;;9.77;98.97;98430.63;5007298;28;20838;-79
2023/03/14 02:48:57;;;;;;;9.00;2.40;;;11.10;99.90;;;9.76;98.65;98418.41;5025108;28;20118;-80
2023/03/14 02:51:25;;;;;;;7.53;2.60;;;11.00;99.90;;;9.74;98.47;98417.72;4998106;28;20047;-79
2023/03/14 02:53:51;;;;;;;5.95;1.77;;;11.00;99.90;;;9.70;98.46;98411.88;4986690;28;20045;-80
2023/03/14 02:56:17;;;;;;;13.13;2.30;;;11.00;99.90;;;9.70;98.47;98411.03;5014259;28;20036;-79
2023/03/14 02:58:43;;;;;;;7.65;1.92;;;11.00;99.90;;;9.66;98.62;98413.09;4951212;28;20712;-79
2023/03/14 03:01:11;;;;;;;9.52;2.15;;;11.00;99.90;;;9.65;98.44;98412.25;4968232;28;20899;-80
2023/03/14 03:03:38;;;;;;;10.52;2.40;;;11.00;99.90;;;9.64;98.39;98404.47;5022077;22;20041;-79
2023/03/14 03:06:05;;;;;;;6.45;2.38;;;11.00;99.90;;;9.62;98.71;98411.66;4987888;28;20041;-79
2023/03/14 03:08:31;;;;;;;7.00;2.70;;;11.00;99.90;;;9.61;98.46;98405.56;4967633;28;20098;-79
2023/03/14 03:11:03;;;;;;;8.40;2.40;;;10.90;99.90;;;9.56;98.24;98402.44;5000841;28;20049;-79
2023/03/14 03:13:31;;;;;;;6.80;2.40;;;10.90;99.90;;;9.52;97.70;98395.75;5009511;28;20028;-79
2023/03/14 03:15:57;;;;;;;6.40;2.50;;;10.80;99.90;;;9.42;96.99;98386.97;5008255;28;20039;-78
2023/03/14 03:18:22;;;;;;;6.68;2.50;;;10.70;99.90;;;9.29;96.92;98384.47;4961854;28;20038;-79
2023/03/14 03:20:48;;;;;;;10.68;2.80;;;10.60;99.90;;;9.17;97.96;98386.25;5005429;28;20033;-79
2023/03/14 03:23:16;;;;;;;10.52;2.50;;;10.50;99.90;;;9.09;99.05;98393.88;5021043;22;20301;-79
2023/03/14 03:25:47;;;;;;;8.40;3.08;;;10.50;99.90;;;9.04;100.00;98390.78;5007715;28;20040;-80
2023/03/14 03:28:13;;;;;;;5.95;2.50;;;10.40;99.90;;;9.02;100.00;98401.41;4974895;28;20734;-78
2023/03/14 03:30:40;;;;;;;9.25;2.97;;;10.40;99.90;;;9.01;100.00;98385.78;5005836;28;20037;-80
2023/03/14 03:33:11;;;;;;;9.15;2.88;;;10.30;99.90;;;8.99;100.00;98399.03;4952926;28;20032;-78
2023/03/14 03:35:47;;;;;;;8.40;3.47;;;10.30;99.90;;;8.93;100.00;98398.66;5001305;28;20395;-78
2023/03/14 03:38:13;;;;;;;;;;;10.20;99.90;;;8.77;100.00;98396.38;5020471;28;20493;-78
2023/03/14 03:40:42;;;;;;;8.80;2.95;;;10.10;99.90;;;8.68;100.00;98394.44;5001413;28;20061;-79
2023/03/14 03:43:08;;;;;;;6.90;2.78;;;10.00;99.90;;;8.62;100.00;98395.75;4986159;22;20041;-79
2023/03/14 03:45:34;;;;;;;8.98;3.45;;;10.00;99.90;;;8.58;100.00;98402.19;4987880;28;20045;-79
2023/03/14 03:48:00;;;;;;;7.63;3.00;;;9.90;99.90;;;8.53;100.00;98401.69;4960309;28;20037;-79
2023/03/14 03:50:28;;;;;;;12.00;3.35;;;9.90;99.90;;;8.54;100.00;98404.19;4970113;28;20037;-79
2023/03/14 03:52:56;;;;;;;5.55;3.00;;;9.90;99.90;;;8.52;100.00;98400.84;4952645;28;20038;-79
2023/03/14 03:55:22;;;;;;;9.48;3.50;;;9.80;99.90;;;8.50;100.00;98402.75;4969843;28;20583;-79
2023/03/14 03:57:48;;;;;;;6.15;3.03;;;9.90;99.90;;;8.48;100.00;98398.56;4927557;28;20038;-79
2023/03/14 04:00:14;;;;;;;5.35;3.10;;;9.80;99.90;;;8.46;100.00;98406.56;4951051;28;20081;-78
2023/03/14 04:02:40;;;;;;;6.65;3.53;;;9.80;99.90;;;8.43;100.00;98406.78;4986744;28;20043;-80
2023/03/14 04:05:12;;;;;;;11.80;3.78;;;9.80;99.90;;;8.40;100.00;98401.72;4967067;28;20039;-79
2023/03/14 04:07:37;;;;;;;11.32;3.97;;;9.80;99.90;;;8.43;100.00;98405.97;4933863;28;20042;-79
2023/03/14 04:10:04;;;;;;;6.82;3.58;;;9.80;99.90;;;8.40;100.00;98404.34;4908644;28;20120;-78
2023/03/14 04:12:30;;;;;;;7.15;3.42;;;9.80;99.90;;;8.41;100.00;98387.72;4950998;28;20037;-78
2023/03/14 04:14:56;;;;;;;11.82;3.30;;;9.80;99.90;;;8.42;100.00;98415.59;4944977;28;20092;-78
2023/03/14 04:17:21;;;;;;;8.15;3.70;;;9.80;99.90;;;8.43;100.00;98401.53;4957091;28;20156;-78
2023/03/14 04:19:55;;;;;;;5.40;3.20;;;9.80;99.90;;;8.46;100.00;98398.69;4938504;28;20049;-79
2023/03/14 04:22:21;;;;;;;6.82;3.10;;;9.80;99.90;;;8.50;100.00;98413.25;4967450;28;20025;-78
2023/03/14 04:24:46;;;;;;;12.50;3.55;;;9.90;99.90;;;8.52;100.00;98405.28;4956208;28;20050;-79
2023/03/14 04:27:14;;;;;;;6.00;3.13;;;9.90;99.90;;;8.56;100.00;98401.47;4964456;28;20432;-79
2023/03/14 04:29:43;;;;;;;7.55;3.25;;;10.00;99.90;;;8.61;100.00;98408.03;4946781;28;20044;-79
2023/03/14 04:32:09;;;;;;;9.35;3.65;;;10.00;99.90;;;8.66;100.00;98406.84;4939253;28;20073;-79
2023/03/14 04:34:35;;;;;;;8.05;3.22;;;10.00;99.90;;;8.66;100.00;98402.44;4944731;28;20030;-79
2023/03/14 04:37:01;;;;;;;8.75;3.10;;;10.00;99.90;;;8.69;100.00;98402.19;4955469;28;20030;-79
2023/03/14 04:39:26;;;;;;;9.10;3.20;;;10.10;99.90;;;8.70;100.00;98389.91;4980918;28;20112;-79
2023/03/14 04:41:52;;;;;;;10.43;3.47;;;10.10;99.90;;;8.70;100.00;98385.50;4967717;28;20033;-79
2023/03/14 04:44:23;;;;;;;7.65;3.30;;;10.10;99.90;;;8.72;100.00;98373.09;4950655;28;20035;-79
2023/03/14 04:46:49;;;;;;;11.77;3.63;;;10.10;99.90;;;8.76;100.00;98371.09;4932800;28;20117;-79
2023/03/14 04:49:15;;;;;;;8.00;3.15;;;10.10;99.90;;;8.75;100.00;98359.75;4963626;28;20124;-79
2023/03/14 04:51:40;;;;;;;9.85;3.17;;;10.10;99.90;;;8.78;100.00;98350.81;4934114;28;20122;-80
2023/03/14 04:54:16;;;;;;;8.02;3.55;;;10.10;99.90;;;8.78;100.00;98348.19;4909847;28;20042;-78
2023/03/14 04:56:42;;;;;;;8.47;3.03;;;10.10;99.90;;;8.79;100.00;98345.47;4917811;28;20503;-79
2023/03/14 04:59:08;;;;;;;6.25;3.03;;;10.20;99.90;;;8.79;100.00;98347.22;4952189;28;20045;-78
2023/03/14 05:01:34;;;;;;;8.57;3.20;;;10.10;99.90;;;8.84;100.00;98345.09;4953239;28;20035;-79
2023/03/14 05:04:01;;;;;;;9.27;3.38;;;10.20;99.90;;;8.83;100.00;98335.53;4939560;28;20064;-80
2023/03/14 05:06:31;;;;;;;8.23;3.08;;;10.20;99.90;;;8.83;100.00;98335.53;4968423;28;20026;-79
2023/03/14 05:08:56;;;;;;;10.57;3.08;;;10.20;99.90;;;8.85;100.00;98333.63;4945916;28;20050;-78
2023/03/14 05:11:22;;;;;;;7.93;2.90;;;10.20;99.90;;;8.83;100.00;98331.16;4889617;28;20224;-79
2023/03/14 05:13:48;;;;;;;9.80;2.97;;;10.20;99.90;;;8.86;100.00;98337.13;4958262;28;20036;-79
2023/03/14 05:16:14;;;;;;;9.20;3.25;;;10.20;99.90;;;8.90;100.00;98328.03;4946055;28;20547;-78
2023/03/14 05:18:40;;;;;;;7.15;3.35;;;10.10;99.90;;;8.90;100.00;98325.41;4948731;28;20112;-80
2023/03/14 05:21:13;;;;;;;14.05;3.45;;;10.10;99.90;;;8.82;100.00;98308.47;4935870;28;20462;-79
2023/03/14 05:23:39;;;;;;;10.23;3.30;;;10.10;99.90;;;8.79;100.00;98310.50;4928354;28;20045;-80
2023/03/14 05:26:05;;;;;;;8.98;3.17;;;10.10;99.90;;;8.79;100.00;98307.88;4984133;28;20037;-79
2023/03/14 05:28:31;;;;;;;6.53;3.40;;;10.10;99.90;;;8.81;100.00;98313.81;4939201;28;20109;-79
2023/03/14 05:30:57;;;;;;;9.55;3.72;;;10.10;99.90;;;8.81;100.00;98313.81;4928799;28;20472;-79
2023/03/14 05:33:27;;;;;;;6.93;2.97;;;10.10;99.90;;;8.79;100.00;98318.34;4985029;28;20094;-79
2023/03/14 05:35:53;;;;;;;9.85;3.17;;;10.00;99.90;;;8.78;100.00;98314.09;4951692;28;20043;-79
2023/03/14 05:38:19;;;;;;;7.45;3.10;;;10.00;99.90;;;8.77;100.00;98315.06;4963497;28;20048;-79
2023/03/14 05:40:46;;;;;;;6.70;3.10;;;10.00;99.90;;;8.76;100.00;98314.19;4978173;28;20535;-79
2023/03/14 05:43:12;;;;;;;11.32;2.83;;;10.00;99.90;;;8.77;100.00;98320.28;4957191;28;20045;-80
2023/03/14 05:45:44;;;;;;;9.10;3.47;;;10.00;99.90;;;8.77;100.00;98313.25;4919326;28;20034;-79
2023/03/14 05:48:10;;;;;;;8.80;2.90;;;10.00;99.90;;;8.79;100.00;98313.97;4937074;28;20038;-79
2023/03/14 05:50:36;;;;;;;11.82;2.92;;;10.00;99.90;;;8.79;100.00;98311.34;4930750;28;20129;-79
2023/03/14 05:53:02;;;;;;;7.07;3.15;;;10.00;99.90;;;8.80;100.00;98302.50;4941143;28;20507;-79
2023/03/14 05:55:28;;;;;;;5.22;2.70;;;10.10;99.90;;;8.81;100.00;98300.72;4940969;28;20046;-79
2023/03/14 05:57:58;;;;;;;9.32;3.00;;;10.10;99.90;;;8.84;100.00;98300.50;4966688;28;20034;-79
2023/03/14 06:00:24;;;;;;;7.22;2.70;;;10.10;99.90;;;8.88;100.00;98304.53;4925264;28;20051;-79
2023/03/14 06:02:50;;;;;;;7.10;2.60;;;10.20;99.90;;;8.93;100.00;98304.19;4952154;28;20094;-79
2023/03/14 06:05:16;;;;;;;7.43;2.50;;;10.20;99.90;;;8.95;100.00;98308.34;4944682;28;20126;-79
2023/03/14 06:07:42;;;;;;;8.43;2.40;;;10.20;99.90;;;8.97;100.00;98303.00;4960871;28;20123;-79
2023/03/14 06:10:16;;;;;;;6.88;2.70;;;10.30;99.90;;;9.00;100.00;98314.06;4936448;28;20054;-79
2023/03/14 06:12:42;;;;;;;4.45;2.15;;;10.30;99.90;;;9.03;100.00;98307.75;4948837;28;20054;-79
2023/03/14 06:15:08;;;;;;;6.05;2.65;;;10.30;99.90;;;9.09;100.00;98312.50;4923670;28;20051;-79
2023/03/14 06:17:34;;;;;;;4.78;2.22;;;10.40;99.90;;;9.12;100.00;98317.53;4940615;28;20391;-79
2023/03/14 06:20:00;;;;;;;6.78;2.38;;;10.40;99.90;;;9.16;100.00;98324.22;4936531;28;20084;-79
2023/03/14 06:22:26;;;;;;;8.35;2.40;;;10.40;99.90;;;9.20;100.00;98316.91;4934777;28;20097;-78
2023/03/14 06:24:57;;;;;;;8.32;2.22;;;10.50;99.90;;;9.22;100.00;98313.22;4943366;28;20027;-79
2023/03/14 06:27:23;;;;;;;10.23;2.70;;;10.50;99.90;;;9.22;100.00;98307.97;4979926;28;20037;-79
2023/03/14 06:29:48;;;;;;;4.93;2.22;;;10.50;99.90;;;9.27;100.00;98310.22;4900690;28;20070;-79
2023/03/14 06:32:14;;;;;;;7.25;2.00;;;10.60;99.90;;;9.31;100.00;98295.03;4932398;28;20120;-79
2023/03/14 06:34:40;;;;;;;7.63;2.15;;;10.60;99.90;;;9.34;100.00;98295.63;4964023;28;20097;-79
2023/03/14 06:37:06;;;;;;;4.38;1.80;;;10.60;99.90;;;9.37;100.00;98299.81;4944883;28;20030;-78
2023/03/14 06:39:32;;;;;;;7.47;2.20;;;10.60;99.90;;;9.39;100.00;98308.41;4982634;28;20639;-79
2023/03/14 06:42:10;;;;;;;4.45;2.20;;;10.70;99.90;;;9.41;100.00;98306.47;4917622;28;20040;-79
2023/03/14 06:44:36;;;;;;;6.07;2.42;;;10.70;99.90;;;9.45;100.00;98311.38;4886141;28;20030;-78
2023/03/14 06:47:02;;;;;;;5.05;1.85;;;10.70;99.90;;;9.47;100.00;98302.53;4919460;28;20045;-79
2023/03/14 06:49:33;;;;;;;6.75;2.00;;;10.80;99.90;;;9.53;100.00;98307.31;4946929;28;20620;-79
2023/03/14 06:51:58;;;;;;;7.95;2.28;;;10.80;99.90;;;9.54;100.00;98301.91;4929029;28;21103;-79
2023/03/14 06:54:24;;;;;;;9.48;2.00;;;10.80;99.90;;;9.60;100.00;98300.59;4953699;28;20121;-78
2023/03/14 06:56:50;;;;;;;7.13;2.17;;;10.90;99.90;;;9.63;100.00;98305.56;4958601;28;20039;-79
2023/03/14 06:59:16;;;;;;;5.38;1.80;;;10.90;99.90;;;9.69;100.00;98304.25;4982440;28;20052;-78
2023/03/14 07:01:42;;;;;;;4.72;1.90;;;10.90;99.90;;;9.72;100.00;98304.84;4923332;28;20035;-78
2023/03/14 07:04:13;;;;;;;11.13;1.90;;;11.00;99.90;;;9.83;100.00;98311.84;4954701;28;20026;-79
2023/03/14 07:06:43;;;;;;;6.45;1.80;;;11.10;99.90;;;9.96;99.92;98311.69;4961331;28;20038;-78
2023/03/14 07:09:13;;;;;;;4.50;1.55;;;11.10;99.90;;;10.05;98.67;98309.13;4937020;28;20043;-80
2023/03/14 07:11:41;;;;;;;7.00;1.95;;;11.20;99.90;;;10.05;97.78;98306.50;4926847;28;20038;-79
2023/03/14 07:14:07;;;;;;;5.03;1.80;;;11.20;99.90;;;10.06;97.14;98308.16;4961910;28;20037;-78
2023/03/14 07:16:33;;;;;;;4.22;1.67;;;11.30;99.90;;;10.07;96.75;98303.75;4962451;28;20038;-79
2023/03/14 07:19:02;;;;;;;7.75;1.73;;;11.30;99.90;;;10.09;96.25;98309.72;4955149;28;20026;-78
2023/03/14 07:21:29;;;;;;;7.60;1.75;;;11.40;99.90;;;10.09;95.80;98309.72;4975697;28;20407;-78
2023/03/14 07:23:55;;;;;;;5.13;1.50;;;11.40;99.90;;;10.13;95.34;98308.50;4964799;28;20023;-77
2023/03/14 07:26:21;;;;;;;5.50;1.60;;;11.30;99.90;;;10.18;95.19;98303.66;4971987;28;20069;-78
2023/03/14 07:28:47;;;;;;;7.07;1.83;;;11.40;99.90;;;10.25;94.57;98311.88;4978044;28;20504;-77
2023/03/14 07:31:13;;;;;;;5.97;1.60;;;11.50;99.90;;;10.36;93.88;98311.84;4931885;28;20046;-78
2023/03/14 07:33:39;;;;;;;6.82;1.83;;;11.60;99.90;;;10.38;92.63;98309.09;4982436;28;20030;-77
2023/03/14 07:36:05;;;;;;;6.60;1.70;;;11.60;99.90;;;10.48;92.86;98319.69;4982768;28;20034;-77
2023/03/14 07:38:31;;;;;;;6.43;1.40;;;11.70;99.90;;;10.65;91.60;98321.72;4971640;28;20031;-78
2023/03/14 07:41:01;;;;;;;7.35;1.70;;;11.90;99.90;;;10.85;90.72;98318.19;4955260;28;20535;-77
2023/03/14 07:43:27;;;;;;;3.97;1.70;;;12.00;99.90;;;11.04;89.06;98321.88;4944945;28;20465;-78
2023/03/14 07:45:53;;;;;;;9.35;1.70;;;12.10;99.90;;;11.16;88.48;98320.78;4950088;28;20039;-78
2023/03/14 07:48:19;;;;;;;5.35;1.45;;;12.20;99.90;;;11.34;87.00;98318.38;4969758;28;20033;-78
2023/03/14 07:50:51;;;;;;;6.15;2.10;;;12.50;99.90;;;11.78;85.35;98315.38;4946842;28;20674;-77
2023/03/14 07:53:18;;;;;;;6.57;1.45;;;12.60;99.90;;;11.81;83.66;98312.47;4956875;28;20034;-78
2023/03/14 07:55:44;;;;;;;4.72;1.27;;;12.70;99.90;;;11.79;83.05;98325.78;4956699;28;20034;-77
2023/03/14 07:58:12;;;;;;;6.25;1.50;;;12.70;99.90;;;11.67;82.72;98318.97;4967942;28;20045;-78
2023/03/14 08:00:39;;;;;;;6.07;1.40;;;12.70;99.90;;;11.63;82.61;98326.31;4948662;28;20108;-77
2023/03/14 08:03:05;;;;;;;4.75;1.20;;;12.80;99.90;;;11.80;82.37;98324.00;4908112;28;20052;-77
2023/03/14 08:05:32;;;;;;;3.65;1.30;;;13.00;99.90;;;12.29;80.76;98325.66;4918556;28;20039;-78
2023/03/14 08:07:58;;;;;;;4.22;1.30;;;13.30;99.90;;;12.81;78.58;98340.28;4983323;28;20447;-78
2023/03/14 08:10:24;;;;;;;7.68;1.45;;;13.70;99.90;;;13.27;76.67;98342.03;4963637;28;20041;-78
2023/03/14 08:12:53;;;;;;;3.00;1.00;;;14.00;99.90;;;13.29;76.02;98334.81;4941348;28;20124;-77
2023/03/14 08:15:22;;;;;;;6.43;1.17;;;14.30;99.90;;;14.15;73.79;98344.13;4986282;28;20081;-78
2023/03/14 08:17:50;;;;;;;3.10;1.08;;;14.70;99.90;;;14.09;72.59;98342.09;4961873;28;20035;-79
2023/03/14 08:20:29;;;;;;;7.03;1.17;;;15.00;99.90;;;14.79;69.91;98349.25;4949218;28;20139;-77
2023/03/14 08:22:57;;;;;;;4.75;1.15;;;15.80;99.90;;;16.44;66.34;98352.25;4947290;28;20033;-77
2023/03/14 08:25:24;;;;;;;3.95;1.00;;;17.00;99.90;;;16.97;63.07;98348.19;4969115;28;20088;-77
2023/03/14 08:27:50;;;;;;;4.43;1.27;;;17.70;99.90;;;17.50;61.89;98358.31;4925960;28;20521;-77
2023/03/14 08:30:19;;;;;;;10.80;1.42;;;18.50;99.90;;;18.22;60.08;98358.88;4955376;28;20058;-78
2023/03/14 08:32:45;;;;;;;7.95;1.10;;;19.10;99.90;;;18.17;59.04;98350.59;4951141;28;20161;-79
2023/03/14 08:35:13;;;;;;;3.17;0.82;;;19.60;99.90;;;18.61;58.55;98347.22;4951716;28;20046;-78
2023/03/14 08:37:39;;;;;;;6.20;0.95;;;20.00;99.90;;;18.94;57.35;98367.44;4968471;28;20031;-78
2023/03/14 08:40:07;;;;;;;5.63;1.10;;;20.40;99.90;;;19.54;55.84;98378.94;4960236;28;20551;-78
2023/03/14 08:42:33;;;;;;;3.85;1.17;;;20.80;99.90;;;19.50;55.24;98369.63;4963527;28;20046;-78
2023/03/14 08:44:59;;;;;;;4.22;0.88;;;21.00;99.90;;;18.96;55.32;98360.94;4989797;28;20034;-78
2023/03/14 08:47:25;;;;;;;5.15;1.08;;;20.90;99.90;;;19.43;55.01;98375.72;4954645;28;20081;-78
2023/03/14 08:49:51;;;;;;;7.78;1.30;;;21.00;99.90;;;19.36;54.44;98366.81;4961026;28;20043;-79
2023/03/14 08:52:17;;;;;;;4.97;1.20;;;20.90;99.90;;;19.37;54.53;98367.63;4942832;28;20031;-78
2023/03/14 08:54:46;;;;;;;7.65;1.20;;;21.00;99.90;;;19.75;53.75;98368.34;4955255;28;20042;-78
2023/03/14 08:57:12;;;;;;;6.50;0.90;;;20.90;99.90;;;18.99;54.17;98368.56;4961914;28;20526;-77
2023/03/14 08:59:41;;;;;;;7.00;1.23;;;20.60;99.90;;;18.59;54.71;98365.22;4973069;28;20125;-79
2023/03/14 09:02:12;;;;;;;7.22;1.27;;;20.20;99.90;;;18.34;54.81;98355.81;4977117;28;20050;-77
2023/03/14 09:04:41;;;;;;;5.07;1.00;;;19.90;99.90;;;18.14;54.88;98369.63;5003746;28;22263;-78
2023/03/14 09:07:08;;;;;;;5.40;0.93;;;19.80;99.90;;;18.36;55.08;98375.94;4942424;28;20031;-78
2023/03/14 09:09:37;;;;;;;5.38;1.67;;;19.70;99.90;;;18.61;54.80;98389.88;4922514;28;20525;-78
2023/03/14 09:12:04;;;;;;;9.02;3.22;;;19.40;99.90;;;17.90;55.95;98380.41;4944282;28;20025;-78
2023/03/14 09:14:32;;;;;;;9.43;2.70;;;19.30;99.90;;;18.16;55.61;98372.09;4974946;28;20114;-78
2023/03/14 09:17:01;;;;;;;4.53;1.70;;;18.90;99.90;;;17.30;57.51;98369.38;4966870;28;20034;-79
2023/03/14 09:19:30;;;;;;;4.68;1.25;;;18.30;99.90;;;16.40;58.66;98362.34;4964170;28;20404;-77
2023/03/14 09:21:59;;;;;;;3.85;1.00;;;17.90;99.90;;;16.59;58.47;98355.06;4959589;28;20431;-79
2023/03/14 09:24:27;;;;;;;6.15;1.45;;;17.90;99.90;;;16.89;58.20;98374.81;4987741;28;20400;-78
2023/03/14 09:26:54;;;;;;;5.45;1.10;;;17.80;99.90;;;16.50;58.37;98364.84;4945904;28;20045;-78
2023/03/14 09:29:23;;;;;;;3.65;0.90;;;17.50;99.90;;;16.05;59.03;98358.19;4979093;28;20521;-79
2023/03/14 09:31:49;;;;;;;6.78;1.15;;;17.30;99.90;;;16.15;59.88;98364.16;4967599;28;20043;-78
2023/03/14 09:34:15;;;;;;;4.28;0.77;;;17.20;99.90;;;16.01;59.92;98364.81;4970028;28;20053;-78
2023/03/14 09:36:43;;;;;;;5.90;0.82;;;16.90;99.90;;;15.65;60.53;98375.66;4937340;28;20033;-78
2023/03/14 09:39:09;;;;;;;6.93;1.13;;;16.60;99.90;;;15.28;61.40;98376.84;4935031;28;20545;-77
2023/03/14 09:41:44;;;;;;;3.38;0.90;;;16.40;99.90;;;14.71;62.35;98369.41;4986273;28;20046;-76
2023/03/14 09:44:35;;;;;;;5.93;1.20;;;16.00;99.90;;;14.51;63.33;98366.09;4993044;28;20050;-79
2023/03/14 09:47:12;;;;;;;5.75;1.10;;;15.80;99.90;;;14.39;63.96;98374.44;4994621;28;20102;-78
2023/03/14 09:49:43;;;;;;;4.38;1.08;;;15.60;99.90;;;14.22;63.98;98373.47;4969066;28;20062;-80
2023/03/14 09:52:24;;;;;;;4.25;0.80;;;15.50;99.90;;;14.12;63.88;98371.72;4999263;28;20570;-77
2023/03/14 09:55:21;;;;;;;4.78;1.05;;;15.40;99.90;;;14.14;64.18;98371.56;4987183;28;20045;-78
2023/03/14 09:57:54;;;;;;;6.75;1.08;;;15.30;99.90;;;14.05;64.89;98381.22;4943501;28;20624;-77
2023/03/14 10:00:27;;;;;;;3.92;0.90;;;15.30;99.90;;;14.09;64.62;98371.19;4964202;28;20022;-77
2023/03/14 10:03:30;;;;;;;6.32;1.02;;;15.20;99.90;;;14.16;64.56;98375.72;4960585;28;20039;-77
2023/03/14 10:05:57;;;;;;;4.82;1.10;;;15.40;99.90;;;14.40;64.46;98384.03;4982341;28;20030;-77
2023/03/14 10:08:39;;;;;;;4.50;0.70;;;15.40;99.90;;;14.53;64.13;98385.28;4977750;28;20026;-78
2023/03/14 10:11:16;;;;;;;4.68;0.93;;;15.50;99.90;;;14.40;64.56;98389.31;4971326;28;20034;-77
2023/03/14 10:14:01;;;;;;;5.15;1.00;;;15.30;99.90;;;13.89;64.76;98384.56;4990240;28;20049;-77
2023/03/14 10:16:42;;;;;;;6.50;1.17;;;15.10;99.90;;;13.59;65.53;98398.13;5001689;28;20134;-78
2023/03/14 10:19:17;;;;;;;6.85;1.00;;;14.90;99.90;;;13.59;66.54;98391.00;4983338;28;20092;-78
2023/03/14 10:21:56;;;;;;;5.75;0.90;;;14.80;99.90;;;13.31;67.13;98388.34;4954605;28;20043;-78
2023/03/14 10:24:28;;;;;;;5.00;1.15;;;14.80;99.90;;;13.28;67.47;98391.31;4969895;28;20037;-79
2023/03/14 10:27:03;;;;;;;4.90;1.00;;;14.50;99.90;;;13.21;68.02;98387.53;5002428;28;20522;-78
2023/03/14 10:29:33;;;;;;;5.55;1.35;;;14.50;99.90;;;13.30;68.20;98392.00;4945384;28;20097;-78